Fayston, Vermont
Current Conditions -  °F | °C
As of 8:51 PM on Wednesday 22 Oct 2014 (Local Time) from KMPV Reporting Station
Overcast Overcast  
Wind Chill:   Ceiling: 2500
Heat Index:   Visibility: 10mi
Dew Point:   Wind: 5mph
Humidity: 80%   Direction: 10°N
Pressure: 30.11"   Gusts: NA
Location:  44.1924°N, 72.8443°W
Report Text: KMPV 230051Z AUTO 01004KT 10SM OVC025 09/06 A3011 RMK AO2 RAE04 SLP203 P0000 T00890056 $
Loading
Personal Weather Stations






























Interactive Weather Map
Tropical Storm Tracking
New forecast layout! Learn more

10-Day Weather Forecast

Advertisements
Track Severe Weather on mobile